Time,TemperatureF,DewpointF,PressureIn,WindDirection,WindDirectionDegrees,WindSpeedMPH,WindSpeedGustMPH,Humidity,HourlyPrecipIn,Conditions,Clouds,dailyrainin,SoftwareType,DateUTC
2013-03-13 00:00:00,37.8,24.3,30.00,North,0,2.2,2.2,58,0.00,,CLR,0.58,VWS V14.01,2013-03-13 04:00:00,
2013-03-13 00:05:00,37.6,25.0,30.00,North,0,0.0,0.0,60,0.00,,CLR,0.00,VWS V14.01,2013-03-13 04:05:00,
2013-03-13 00:10:00,37.2,25.0,30.00,North,0,2.2,2.2,61,0.00,,CLR,0.00,VWS V14.01,2013-03-13 04:10:00,
2013-03-13 00:15:00,37.2,25.0,30.00,North,0,0.0,0.0,61,0.00,,CLR,0.00,VWS V14.01,2013-03-13 04:15:00,
2013-03-13 00:20:00,37.2,25.0,30.00,North,0,0.0,0.0,61,0.00,,CLR,0.00,VWS V14.01,2013-03-13 04:20:00,
2013-03-13 00:26:00,37.2,25.0,30.00,North,0,0.0,0.0,61,0.00,,CLR,0.00,VWS V14.01,2013-03-13 04:26:00,
2013-03-13 00:31:00,37.2,25.0,30.00,North,0,0.0,0.0,61,0.00,,CLR,0.00,VWS V14.01,2013-03-13 04:31:00,
2013-03-13 00:36:00,37.2,25.0,30.00,North,0,2.2,2.2,61,0.00,,CLR,0.00,VWS V14.01,2013-03-13 04:36:00,
2013-03-13 00:41:00,36.9,24.7,30.00,North,0,2.2,2.7,61,0.00,,CLR,0.00,VWS V14.01,2013-03-13 04:41:00,
2013-03-13 00:46:00,37.0,24.1,30.00,North,0,0.0,0.0,59,0.00,,CLR,0.00,VWS V14.01,2013-03-13 04:46:00,
2013-03-13 00:51:00,36.9,24.3,30.00,North,0,2.2,2.7,60,0.00,,CLR,0.00,VWS V14.01,2013-03-13 04:51:00,
2013-03-13 00:56:00,36.7,24.5,30.00,North,0,2.7,3.1,61,0.00,,CLR,0.00,VWS V14.01,2013-03-13 04:56:00,
2013-03-13 01:01:00,36.7,24.9,30.00,North,0,0.0,0.0,62,0.00,,CLR,0.00,VWS V14.01,2013-03-13 05:01:00,
2013-03-13 01:06:00,36.7,24.1,30.00,North,0,0.0,0.0,60,0.00,,CLR,0.00,VWS V14.01,2013-03-13 05:06:00,
2013-03-13 01:11:00,37.0,23.2,30.00,North,0,2.2,2.2,57,0.00,,CLR,0.00,VWS V14.01,2013-03-13 05:11:00,
2013-03-13 01:16:00,38.8,23.6,30.00,North,0,2.2,2.2,54,0.00,,CLR,0.00,VWS V14.01,2013-03-13 05:16:00,
2013-03-13 01:21:00,40.1,23.4,30.00,North,0,0.0,0.0,51,0.00,,CLR,0.00,VWS V14.01,2013-03-13 05:21:00,
2013-03-13 01:26:00,41.9,24.1,30.00,WNW,292,2.7,3.1,49,0.00,,CLR,0.00,VWS V14.01,2013-03-13 05:26:00,
2013-03-13 01:31:00,42.8,22.4,30.00,WNW,292,0.0,0.0,44,0.00,,CLR,0.00,VWS V14.01,2013-03-13 05:31:00,
2013-03-13 01:36:00,42.6,22.2,30.00,WNW,292,2.2,3.1,44,0.00,,CLR,0.00,VWS V14.01,2013-03-13 05:36:00,
2013-03-13 01:42:00,42.8,21.9,30.00,WNW,292,0.0,0.0,43,0.00,,CLR,0.00,VWS V14.01,2013-03-13 05:42:00,
2013-03-13 01:47:00,42.8,21.3,30.00,West,270,3.1,3.1,42,0.00,,CLR,0.00,VWS V14.01,2013-03-13 05:47:00,
2013-03-13 01:52:00,42.3,20.8,30.00,West,270,0.0,0.0,42,0.00,,CLR,0.00,VWS V14.01,2013-03-13 05:52:00,
2013-03-13 01:57:00,41.9,21.0,30.00,West,270,0.0,0.0,43,0.00,,CLR,0.00,VWS V14.01,2013-03-13 05:57:00,
2013-03-13 02:02:00,41.2,20.9,30.00,West,270,0.0,0.0,44,0.00,,CLR,0.00,VWS V14.01,2013-03-13 06:02:00,
2013-03-13 02:07:00,40.8,21.7,30.00,West,270,2.2,2.2,46,0.00,,CLR,0.00,VWS V14.01,2013-03-13 06:07:00,
2013-03-13 02:12:00,39.9,22.3,30.00,West,270,0.0,0.0,49,0.00,,CLR,0.00,VWS V14.01,2013-03-13 06:12:00,
2013-03-13 02:17:00,39.9,22.3,30.00,West,270,0.0,0.0,49,0.00,,CLR,0.00,VWS V14.01,2013-03-13 06:17:00,
2013-03-13 02:22:00,40.5,22.8,30.00,WNW,292,4.0,4.0,49,0.00,,CLR,0.00,VWS V14.01,2013-03-13 06:22:00,
2013-03-13 02:27:00,42.1,22.8,30.00,NNW,338,3.6,3.6,46,0.00,,CLR,0.00,VWS V14.01,2013-03-13 06:27:00,
2013-03-13 02:32:00,42.8,22.4,30.00,WNW,292,0.0,2.7,44,0.00,,CLR,0.00,VWS V14.01,2013-03-13 06:32:00,
2013-03-13 02:38:00,43.5,21.4,30.00,NNW,338,3.1,3.6,41,0.00,,CLR,0.00,VWS V14.01,2013-03-13 06:38:00,
2013-03-13 02:43:00,43.7,21.6,30.00,WNW,292,4.0,5.8,41,0.00,,CLR,0.00,VWS V14.01,2013-03-13 06:43:00,
2013-03-13 02:48:00,44.1,20.7,30.00,NNW,338,3.6,4.0,39,0.00,,CLR,0.00,VWS V14.01,2013-03-13 06:48:00,
2013-03-13 02:53:00,44.1,20.7,30.03,WNW,292,4.0,4.9,39,0.00,,CLR,0.00,VWS V14.01,2013-03-13 06:53:00,
2013-03-13 02:58:00,43.7,20.4,30.03,WNW,292,0.0,3.1,39,0.00,,CLR,0.00,VWS V14.01,2013-03-13 06:58:00,
2013-03-13 03:03:00,44.6,20.6,30.03,WNW,292,4.9,4.9,38,0.00,,CLR,0.00,VWS V14.01,2013-03-13 07:03:00,
2013-03-13 03:08:00,44.2,20.3,30.03,WNW,292,0.0,4.0,38,0.00,,CLR,0.00,VWS V14.01,2013-03-13 07:08:00,
2013-03-13 03:13:00,44.2,20.3,30.03,WNW,292,3.6,3.6,38,0.00,,CLR,0.00,VWS V14.01,2013-03-13 07:13:00,
2013-03-13 03:18:00,44.1,20.1,30.03,WNW,292,2.7,3.6,38,0.00,,CLR,0.00,VWS V14.01,2013-03-13 07:18:00,
2013-03-13 03:23:00,43.9,19.9,30.03,NNW,338,3.6,3.6,38,0.00,,CLR,0.00,VWS V14.01,2013-03-13 07:23:00,
2013-03-13 03:28:00,44.1,20.1,30.03,WNW,292,4.0,4.5,38,0.00,,CLR,0.00,VWS V14.01,2013-03-13 07:28:00,
2013-03-13 03:33:00,44.2,20.3,30.03,WNW,292,2.7,4.9,38,0.00,,CLR,0.00,VWS V14.01,2013-03-13 07:33:00,
2013-03-13 03:38:00,43.9,19.9,30.03,SW,225,0.0,3.1,38,0.00,,CLR,0.00,VWS V14.01,2013-03-13 07:38:00,
2013-03-13 03:43:00,43.7,19.8,30.03,WNW,292,2.7,3.6,38,0.00,,CLR,0.00,VWS V14.01,2013-03-13 07:43:00,
2013-03-13 03:48:00,43.5,19.6,30.03,NNW,338,2.7,2.7,38,0.00,,CLR,0.00,VWS V14.01,2013-03-13 07:48:00,
2013-03-13 03:53:00,43.2,19.3,30.03,North,0,3.1,4.0,38,0.00,,CLR,0.00,VWS V14.01,2013-03-13 07:53:00,
2013-03-13 03:58:00,43.3,18.8,30.03,NNW,338,2.2,2.2,37,0.00,,CLR,0.00,VWS V14.01,2013-03-13 07:58:00,
2013-03-13 04:03:00,42.8,17.7,30.03,NW,315,3.1,3.1,36,0.00,,CLR,0.00,VWS V14.01,2013-03-13 08:03:00,
2013-03-13 04:08:00,42.8,16.4,30.03,SW,225,3.6,3.6,34,0.00,,CLR,0.00,VWS V14.01,2013-03-13 08:08:00,
2013-03-13 04:13:00,42.6,15.6,30.03,WNW,292,2.7,2.7,33,0.00,,CLR,0.00,VWS V14.01,2013-03-13 08:13:00,
2013-03-13 04:18:00,42.3,15.2,30.03,WNW,292,2.2,2.2,33,0.00,,CLR,0.00,VWS V14.01,2013-03-13 08:18:00,
2013-03-13 04:23:00,41.9,14.9,30.03,WNW,292,2.2,2.7,33,0.00,,CLR,0.00,VWS V14.01,2013-03-13 08:23:00,
2013-03-13 04:28:00,41.9,14.9,30.03,WNW,292,2.7,2.7,33,0.00,,CLR,0.00,VWS V14.01,2013-03-13 08:28:00,
2013-03-13 04:33:00,41.5,15.3,30.03,WNW,292,2.7,2.7,34,0.00,,CLR,0.00,VWS V14.01,2013-03-13 08:33:00,
2013-03-13 04:38:00,41.5,15.3,30.03,WNW,292,0.0,3.6,34,0.00,,CLR,0.00,VWS V14.01,2013-03-13 08:38:00,
2013-03-13 04:44:00,41.2,15.0,30.03,WNW,292,0.0,2.2,34,0.00,,CLR,0.00,VWS V14.01,2013-03-13 08:44:00,
2013-03-13 04:49:00,40.8,15.3,30.03,WNW,292,0.0,0.0,35,0.00,,CLR,0.00,VWS V14.01,2013-03-13 08:49:00,
2013-03-13 04:54:00,40.5,15.0,30.03,WNW,292,0.0,0.0,35,0.00,,CLR,0.00,VWS V14.01,2013-03-13 08:54:00,
2013-03-13 04:59:00,40.5,15.0,30.03,WNW,292,0.0,2.2,35,0.00,,CLR,0.00,VWS V14.01,2013-03-13 08:59:00,
2013-03-13 05:04:00,40.1,15.3,30.03,WNW,292,0.0,2.2,36,0.00,,CLR,0.00,VWS V14.01,2013-03-13 09:04:00,
2013-03-13 05:09:00,40.3,15.5,30.03,WNW,292,2.7,3.1,36,0.00,,CLR,0.00,VWS V14.01,2013-03-13 09:09:00,
2013-03-13 05:14:00,40.1,15.3,30.03,WNW,292,2.2,2.2,36,0.00,,CLR,0.00,VWS V14.01,2013-03-13 09:14:00,
2013-03-13 05:19:00,40.1,15.3,30.03,WNW,292,0.0,0.0,36,0.00,,CLR,0.00,VWS V14.01,2013-03-13 09:19:00,
2013-03-13 05:24:00,40.1,15.3,30.03,WNW,292,0.0,0.0,36,0.00,,CLR,0.00,VWS V14.01,2013-03-13 09:24:00,
2013-03-13 05:29:00,39.9,15.1,30.03,WNW,292,2.2,2.2,36,0.00,,CLR,0.00,VWS V14.01,2013-03-13 09:29:00,
2013-03-13 05:34:00,40.1,15.3,30.03,WNW,292,2.2,2.2,36,0.00,,CLR,0.00,VWS V14.01,2013-03-13 09:34:00,
2013-03-13 05:39:00,40.3,14.8,30.03,WNW,292,2.2,2.7,35,0.00,,CLR,0.00,VWS V14.01,2013-03-13 09:39:00,
2013-03-13 05:44:00,39.9,14.5,30.03,WNW,292,2.7,2.7,35,0.00,,CLR,0.00,VWS V14.01,2013-03-13 09:44:00,
2013-03-13 05:49:00,39.7,14.3,30.03,WNW,292,0.0,0.0,35,0.00,,CLR,0.00,VWS V14.01,2013-03-13 09:49:00,
2013-03-13 05:54:00,39.9,14.5,30.03,WNW,292,2.2,2.2,35,0.00,,CLR,0.00,VWS V14.01,2013-03-13 09:54:00,
2013-03-13 05:59:00,39.7,15.0,30.03,WNW,292,3.6,3.6,36,0.00,,CLR,0.00,VWS V14.01,2013-03-13 09:59:00,
2013-03-13 06:04:00,39.2,15.1,30.03,WNW,292,0.0,0.0,37,0.00,,CLR,0.00,VWS V14.01,2013-03-13 10:04:00,
2013-03-13 06:09:00,38.5,15.7,30.03,WNW,292,0.0,0.0,39,0.00,,CLR,0.00,VWS V14.01,2013-03-13 10:09:00,
2013-03-13 06:14:00,38.1,15.4,30.03,WNW,292,0.0,0.0,39,0.00,,CLR,0.00,VWS V14.01,2013-03-13 10:14:00,
2013-03-13 06:19:00,37.4,15.3,30.03,WNW,292,0.0,0.0,40,0.00,,CLR,0.00,VWS V14.01,2013-03-13 10:19:00,
2013-03-13 06:24:00,36.5,16.1,30.03,WNW,292,0.0,0.0,43,0.00,,CLR,0.00,VWS V14.01,2013-03-13 10:24:00,
2013-03-13 06:29:00,36.1,16.4,30.03,WNW,292,2.7,2.7,44,0.00,,CLR,0.00,VWS V14.01,2013-03-13 10:29:00,
2013-03-13 06:34:00,35.2,17.5,30.03,WNW,292,0.0,0.0,48,0.00,,CLR,0.00,VWS V14.01,2013-03-13 10:34:00,
2013-03-13 06:39:00,34.3,17.6,30.03,WNW,292,0.0,0.0,50,0.00,,CLR,0.00,VWS V14.01,2013-03-13 10:39:00,
2013-03-13 06:44:00,34.0,17.3,30.03,WNW,292,0.0,0.0,50,0.00,,CLR,0.00,VWS V14.01,2013-03-13 10:44:00,
2013-03-13 06:49:00,35.4,18.2,30.03,WNW,292,0.0,0.0,49,0.00,,CLR,0.00,VWS V14.01,2013-03-13 10:49:00,
2013-03-13 06:54:00,34.7,17.0,30.03,WNW,292,0.0,0.0,48,0.00,,CLR,0.00,VWS V14.01,2013-03-13 10:54:00,
2013-03-13 06:59:00,35.2,17.0,30.03,WNW,292,0.0,0.0,47,0.00,,CLR,0.00,VWS V14.01,2013-03-13 10:59:00,
2013-03-13 07:04:00,35.8,16.5,30.06,WNW,292,0.0,0.0,45,0.00,,CLR,0.00,VWS V14.01,2013-03-13 11:04:00,
2013-03-13 07:09:00,35.1,16.4,30.06,WNW,292,2.2,2.2,46,0.00,,CLR,0.00,VWS V14.01,2013-03-13 11:09:00,
2013-03-13 07:14:00,35.4,16.2,30.06,WNW,292,0.0,0.0,45,0.00,,CLR,0.00,VWS V14.01,2013-03-13 11:14:00,
2013-03-13 07:19:00,34.5,16.4,30.06,WNW,292,0.0,0.0,47,0.00,,CLR,0.00,VWS V14.01,2013-03-13 11:19:00,
2013-03-13 07:24:00,34.2,17.0,30.06,WNW,292,0.0,0.0,49,0.00,,CLR,0.00,VWS V14.01,2013-03-13 11:24:00,
2013-03-13 07:29:00,33.3,17.5,30.06,WNW,292,0.0,0.0,52,0.00,,CLR,0.00,VWS V14.01,2013-03-13 11:29:00,
2013-03-13 07:34:00,32.5,18.6,30.06,WNW,292,0.0,2.2,56,0.00,,CLR,0.00,VWS V14.01,2013-03-13 11:34:00,
2013-03-13 07:39:00,31.8,18.7,30.06,WNW,292,0.0,0.0,58,0.00,,CLR,0.00,VWS V14.01,2013-03-13 11:39:00,
2013-03-13 07:44:00,31.3,18.6,30.06,WNW,292,0.0,0.0,59,0.00,,CLR,0.00,VWS V14.01,2013-03-13 11:44:00,
2013-03-13 07:49:00,31.1,18.9,30.06,WNW,292,0.0,0.0,60,0.00,,CLR,0.00,VWS V14.01,2013-03-13 11:49:00,
2013-03-13 07:54:00,31.8,20.3,30.06,WSW,248,2.7,2.7,62,0.00,,CLR,0.00,VWS V14.01,2013-03-13 11:54:00,
2013-03-13 08:00:00,31.5,20.0,30.06,WSW,248,0.0,0.0,62,0.00,,CLR,0.00,VWS V14.01,2013-03-13 12:00:00,
2013-03-13 08:05:00,32.0,20.5,30.06,WSW,248,0.0,0.0,62,0.00,,CLR,0.00,VWS V14.01,2013-03-13 12:05:00,
2013-03-13 08:10:00,31.5,20.0,30.06,WSW,248,0.0,0.0,62,0.00,,CLR,0.00,VWS V14.01,2013-03-13 12:10:00,
2013-03-13 08:15:00,31.1,20.4,30.06,WSW,248,0.0,0.0,64,0.00,,CLR,0.00,VWS V14.01,2013-03-13 12:15:00,
2013-03-13 08:20:00,31.1,21.1,30.06,WSW,248,0.0,0.0,66,0.00,,CLR,0.00,VWS V14.01,2013-03-13 12:20:00,
2013-03-13 08:25:00,31.1,21.4,30.06,WSW,248,0.0,0.0,67,0.00,,CLR,0.00,VWS V14.01,2013-03-13 12:25:00,
2013-03-13 08:30:00,31.5,22.1,30.06,WSW,248,0.0,0.0,68,0.00,,CLR,0.00,VWS V14.01,2013-03-13 12:30:00,
2013-03-13 08:35:00,32.5,23.5,30.06,WSW,248,0.0,0.0,69,0.00,,CLR,0.00,VWS V14.01,2013-03-13 12:35:00,
2013-03-13 08:40:00,32.7,24.0,30.06,WSW,248,0.0,0.0,70,0.00,,CLR,0.00,VWS V14.01,2013-03-13 12:40:00,
2013-03-13 08:45:00,34.0,25.2,30.06,WSW,248,0.0,0.0,70,0.00,,CLR,0.00,VWS V14.01,2013-03-13 12:45:00,
2013-03-13 08:50:00,36.1,25.1,30.06,WSW,248,0.0,0.0,64,0.00,,CLR,0.00,VWS V14.01,2013-03-13 12:50:00,
2013-03-13 08:55:00,36.0,24.2,30.06,WSW,248,0.0,0.0,62,0.00,,CLR,0.00,VWS V14.01,2013-03-13 12:55:00,
2013-03-13 09:00:00,36.7,24.9,30.06,WSW,248,0.0,0.0,62,0.00,,CLR,0.00,VWS V14.01,2013-03-13 13:00:00,
2013-03-13 09:05:00,37.8,25.1,30.06,WSW,248,0.0,0.0,60,0.00,,CLR,0.00,VWS V14.01,2013-03-13 13:05:00,
2013-03-13 09:10:00,40.5,24.2,30.06,WSW,248,3.1,3.1,52,0.00,,CLR,0.00,VWS V14.01,2013-03-13 13:10:00,
2013-03-13 09:15:00,41.5,21.3,30.06,West,270,2.7,3.6,44,0.00,,CLR,0.00,VWS V14.01,2013-03-13 13:15:00,
2013-03-13 09:20:00,42.4,21.0,30.06,WNW,292,3.1,3.1,42,0.00,,CLR,0.00,VWS V14.01,2013-03-13 13:20:00,
2013-03-13 09:25:00,43.0,20.3,30.06,SW,225,4.9,4.9,40,0.00,,CLR,0.00,VWS V14.01,2013-03-13 13:25:00,
2013-03-13 09:30:00,43.5,20.8,30.06,West,270,2.7,3.6,40,0.00,,CLR,0.00,VWS V14.01,2013-03-13 13:30:00,
2013-03-13 09:35:00,43.5,20.8,30.06,SW,225,3.6,4.0,40,0.00,,CLR,0.00,VWS V14.01,2013-03-13 13:35:00,
2013-03-13 09:40:00,43.5,20.2,30.06,SW,225,4.0,5.8,39,0.00,,CLR,0.00,VWS V14.01,2013-03-13 13:40:00,
2013-03-13 09:46:00,43.2,19.9,30.06,South,180,5.4,5.4,39,0.00,,CLR,0.00,VWS V14.01,2013-03-13 13:46:00,
2013-03-13 09:51:00,43.5,19.6,30.06,WSW,248,3.6,3.6,38,0.00,,CLR,0.00,VWS V14.01,2013-03-13 13:51:00,
2013-03-13 09:56:00,44.1,20.1,30.06,WNW,292,3.6,6.3,38,0.00,,CLR,0.00,VWS V14.01,2013-03-13 13:56:00,
2013-03-13 10:01:00,44.6,19.3,30.06,SW,225,7.6,7.6,36,0.00,,CLR,0.00,VWS V14.01,2013-03-13 14:01:00,
2013-03-13 10:06:00,45.5,20.8,30.06,WNW,292,8.3,9.2,37,0.00,,CLR,0.00,VWS V14.01,2013-03-13 14:06:00,
2013-03-13 10:11:00,46.0,18.6,30.06,WNW,292,2.7,7.6,33,0.00,,CLR,0.00,VWS V14.01,2013-03-13 14:11:00,
2013-03-13 10:17:00,47.3,19.7,30.06,WSW,248,5.8,5.8,33,0.00,,CLR,0.00,VWS V14.01,2013-03-13 14:17:00,
2013-03-13 10:22:00,47.7,17.8,30.06,NNW,338,3.6,3.6,30,0.00,,SCT065,0.00,VWS V14.01,2013-03-13 14:22:00,
2013-03-13 10:27:00,46.8,16.2,30.06,West,270,3.1,4.9,29,0.00,,SCT065,0.00,VWS V14.01,2013-03-13 14:27:00,
2013-03-13 10:32:00,47.3,16.7,30.06,WSW,248,6.3,8.3,29,0.00,,SCT065,0.00,VWS V14.01,2013-03-13 14:32:00,
2013-03-13 10:37:00,46.8,16.2,30.06,WSW,248,6.3,6.3,29,0.00,,SCT065,0.00,VWS V14.01,2013-03-13 14:37:00,
2013-03-13 10:42:00,46.4,15.9,30.06,WSW,248,5.8,8.3,29,0.00,,BKN080,0.00,VWS V14.01,2013-03-13 14:42:00,
2013-03-13 10:47:00,46.8,16.2,30.06,WNW,292,4.0,4.0,29,0.00,,BKN080,0.00,VWS V14.01,2013-03-13 14:47:00,
2013-03-13 10:52:00,46.4,16.7,30.06,WNW,292,3.1,3.1,30,0.00,,BKN080,0.00,VWS V14.01,2013-03-13 14:52:00,
2013-03-13 10:57:00,46.4,16.7,30.06,NNW,338,4.0,4.0,30,0.00,,BKN080,0.00,VWS V14.01,2013-03-13 14:57:00,
2013-03-13 11:03:00,46.9,18.6,30.06,WNW,292,3.1,4.0,32,0.00,,BKN080,0.00,VWS V14.01,2013-03-13 15:03:00,
2013-03-13 11:08:00,47.5,19.1,30.06,WNW,292,5.4,5.4,32,0.00,,BKN080,0.00,VWS V14.01,2013-03-13 15:08:00,
2013-03-13 11:13:00,47.8,19.4,30.06,NNE,22,3.1,5.4,32,0.00,,BKN080,0.00,VWS V14.01,2013-03-13 15:13:00,
2013-03-13 11:18:00,48.2,20.5,30.06,NW,315,3.1,3.1,33,0.00,,BKN080,0.00,VWS V14.01,2013-03-13 15:18:00,
2013-03-13 11:23:00,48.7,19.5,30.06,WSW,248,3.1,3.1,31,0.00,,BKN070,0.00,VWS V14.01,2013-03-13 15:23:00,
2013-03-13 11:28:00,47.8,18.7,30.06,WNW,292,3.6,4.9,31,0.00,,BKN070,0.00,VWS V14.01,2013-03-13 15:28:00,
2013-03-13 11:33:00,48.2,18.2,30.06,NW,315,4.0,4.0,30,0.00,,BKN070,0.00,VWS V14.01,2013-03-13 15:33:00,
2013-03-13 11:38:00,48.2,17.5,30.06,North,0,4.9,5.8,29,0.00,,BKN070,0.00,VWS V14.01,2013-03-13 15:38:00,
2013-03-13 11:43:00,48.7,18.7,30.06,West,270,4.0,4.0,30,0.00,,SCT070,0.00,VWS V14.01,2013-03-13 15:43:00,
2013-03-13 11:48:00,49.6,18.7,30.06,WNW,292,5.4,5.4,29,0.00,,SCT070,0.00,VWS V14.01,2013-03-13 15:48:00,
2013-03-13 11:53:00,48.4,16.8,30.06,NNW,338,5.8,6.7,28,0.00,,SCT070,0.00,VWS V14.01,2013-03-13 15:53:00,
2013-03-13 11:58:00,48.2,18.2,30.06,WSW,248,6.7,6.7,30,0.00,,SCT070,0.00,VWS V14.01,2013-03-13 15:58:00,
2013-03-13 12:03:00,48.0,16.5,30.06,West,270,8.3,8.3,28,0.00,,CLR,0.00,VWS V14.01,2013-03-13 16:03:00,
2013-03-13 12:08:00,49.1,17.4,30.06,NW,315,12.3,12.3,28,0.00,,CLR,0.00,VWS V14.01,2013-03-13 16:08:00,
2013-03-13 12:13:00,48.6,16.1,30.06,WNW,292,5.8,11.4,27,0.00,,CLR,0.00,VWS V14.01,2013-03-13 16:13:00,
2013-03-13 12:18:00,49.5,17.7,30.06,WNW,292,5.8,5.8,28,0.00,,CLR,0.00,VWS V14.01,2013-03-13 16:18:00,
2013-03-13 12:23:00,49.6,17.0,30.06,West,270,8.3,10.5,27,0.00,,CLR,0.00,VWS V14.01,2013-03-13 16:23:00,
2013-03-13 12:28:00,47.5,16.0,30.06,West,270,4.0,7.6,28,0.00,,CLR,0.00,VWS V14.01,2013-03-13 16:28:00,
2013-03-13 12:33:00,47.7,15.3,30.06,WNW,292,3.6,5.8,27,0.00,,CLR,0.00,VWS V14.01,2013-03-13 16:33:00,
2013-03-13 12:38:00,49.1,16.6,30.06,North,0,3.6,3.6,27,0.00,,CLR,0.00,VWS V14.01,2013-03-13 16:38:00,
2013-03-13 12:43:00,49.6,17.0,30.06,NNW,338,2.7,2.7,27,0.00,,CLR,0.00,VWS V14.01,2013-03-13 16:43:00,
2013-03-13 12:49:00,49.6,16.2,30.06,NNW,338,3.6,8.1,26,0.00,,CLR,0.00,VWS V14.01,2013-03-13 16:49:00,
2013-03-13 12:54:00,51.3,17.6,30.06,NNE,22,5.4,7.2,26,0.00,,CLR,0.00,VWS V14.01,2013-03-13 16:54:00,
2013-03-13 12:59:00,51.8,15.2,30.06,WSW,248,3.1,5.4,23,0.00,,CLR,0.00,VWS V14.01,2013-03-13 16:59:00,
2013-03-13 13:04:00,53.4,16.6,30.06,NNW,338,5.4,5.4,23,0.00,,SCT070,0.00,VWS V14.01,2013-03-13 17:04:00,
2013-03-13 13:09:00,52.0,13.3,30.06,WNW,292,10.5,10.5,21,0.00,,SCT070,0.00,VWS V14.01,2013-03-13 17:09:00,
2013-03-13 13:14:00,49.5,14.2,30.06,WNW,292,4.9,12.8,24,0.00,,SCT070,0.00,VWS V14.01,2013-03-13 17:14:00,
2013-03-13 13:19:00,48.9,13.7,30.06,WNW,292,5.4,5.4,24,0.00,,SCT070,0.00,VWS V14.01,2013-03-13 17:19:00,
2013-03-13 13:24:00,50.2,14.8,30.06,NNW,338,5.8,5.8,24,0.00,,SCT065,0.00,VWS V14.01,2013-03-13 17:24:00,
2013-03-13 13:29:00,51.3,15.7,30.06,North,0,3.6,3.6,24,0.00,,SCT065,0.00,VWS V14.01,2013-03-13 17:29:00,
2013-03-13 13:34:00,50.0,14.6,30.06,WNW,292,8.1,8.7,24,0.00,,SCT065,0.00,VWS V14.01,2013-03-13 17:34:00,
2013-03-13 13:39:00,50.7,12.2,30.03,WNW,292,9.6,9.6,21,0.00,,SCT065,0.00,VWS V14.01,2013-03-13 17:39:00,
2013-03-13 13:44:00,50.0,11.6,30.03,West,270,12.3,12.3,21,0.00,,SCT065,0.00,VWS V14.01,2013-03-13 17:44:00,
2013-03-13 13:49:00,49.6,14.3,30.03,West,270,3.6,9.6,24,0.00,,SCT065,0.00,VWS V14.01,2013-03-13 17:49:00,
2013-03-13 13:54:00,50.2,14.8,30.03,WNW,292,8.1,10.5,24,0.00,,SCT065,0.00,VWS V14.01,2013-03-13 17:54:00,
2013-03-13 13:59:00,51.8,15.2,30.03,SSW,202,5.4,6.7,23,0.00,,SCT065,0.00,VWS V14.01,2013-03-13 17:59:00,
2013-03-13 14:04:00,50.7,15.3,30.03,West,270,7.6,8.1,24,0.00,,SCT065,0.00,VWS V14.01,2013-03-13 18:04:00,
2013-03-13 14:09:00,51.8,15.2,30.03,WNW,292,8.3,8.3,23,0.00,,SCT065,0.00,VWS V14.01,2013-03-13 18:09:00,
2013-03-13 14:15:00,50.5,15.1,30.03,West,270,5.4,8.3,24,0.00,,SCT065,0.00,VWS V14.01,2013-03-13 18:15:00,
2013-03-13 14:20:00,48.9,13.7,30.03,West,270,7.2,8.3,24,0.00,,SCT065,0.00,VWS V14.01,2013-03-13 18:20:00,
2013-03-13 14:25:00,50.4,14.9,30.03,WNW,292,6.3,7.6,24,0.00,,SCT070,0.00,VWS V14.01,2013-03-13 18:25:00,
2013-03-13 14:30:00,53.4,16.6,30.03,WNW,292,4.0,6.7,23,0.00,,SCT070,0.00,VWS V14.01,2013-03-13 18:30:00,
2013-03-13 14:35:00,52.3,15.7,30.03,NNW,338,4.9,6.3,23,0.00,,SCT070,0.00,VWS V14.01,2013-03-13 18:35:00,
2013-03-13 14:40:00,50.0,14.6,30.03,West,270,2.7,2.7,24,0.00,,BKN060,0.00,VWS V14.01,2013-03-13 18:40:00,
2013-03-13 14:45:00,50.2,14.8,30.03,WSW,248,5.8,5.8,24,0.00,,BKN060,0.00,VWS V14.01,2013-03-13 18:45:00,
2013-03-13 14:50:00,49.8,16.3,30.03,SW,225,10.5,10.5,26,0.00,,BKN060,0.00,VWS V14.01,2013-03-13 18:50:00,
2013-03-13 14:55:00,49.5,14.2,30.03,West,270,5.8,8.3,24,0.00,,BKN060,0.00,VWS V14.01,2013-03-13 18:55:00,
2013-03-13 15:00:00,50.2,14.8,30.03,NNW,338,5.4,5.4,24,0.00,,BKN060,0.00,VWS V14.01,2013-03-13 19:00:00,
2013-03-13 15:05:00,50.0,11.6,30.06,NNW,338,8.3,10.1,21,0.00,,SCT060,0.00,VWS V14.01,2013-03-13 19:05:00,
2013-03-13 15:10:00,50.7,12.2,30.06,North,0,3.1,4.0,21,0.00,,SCT060,0.00,VWS V14.01,2013-03-13 19:10:00,
2013-03-13 15:15:00,51.3,12.7,30.06,NW,315,4.5,5.4,21,0.00,,SCT060,0.00,VWS V14.01,2013-03-13 19:15:00,
2013-03-13 15:20:00,52.2,15.5,30.03,WNW,292,4.9,4.9,23,0.00,,BKN060,0.00,VWS V14.01,2013-03-13 19:20:00,
2013-03-13 15:25:00,50.9,15.4,30.03,WSW,248,5.8,6.3,24,0.00,,BKN060,0.00,VWS V14.01,2013-03-13 19:25:00,
2013-03-13 15:30:00,49.5,14.2,30.03,WNW,292,5.4,6.3,24,0.00,,BKN060,0.00,VWS V14.01,2013-03-13 19:30:00,
2013-03-13 15:35:00,48.4,10.3,30.03,NNW,338,4.9,5.8,21,0.00,,BKN060,0.00,VWS V14.01,2013-03-13 19:35:00,
2013-03-13 15:40:00,49.8,11.5,30.03,North,0,4.9,4.9,21,0.00,,BKN060,0.00,VWS V14.01,2013-03-13 19:40:00,
2013-03-13 15:45:00,49.1,10.9,30.03,NW,315,2.7,2.7,21,0.00,,BKN060,0.00,VWS V14.01,2013-03-13 19:45:00,
2013-03-13 15:50:00,50.2,14.8,30.03,NNW,338,4.9,4.9,24,0.00,,BKN060,0.00,VWS V14.01,2013-03-13 19:50:00,
2013-03-13 15:56:00,49.6,14.3,30.03,WSW,248,7.2,7.6,24,0.00,,BKN060,0.00,VWS V14.01,2013-03-13 19:56:00,
2013-03-13 16:01:00,50.2,11.8,30.03,NNW,338,8.7,8.7,21,0.00,,BKN060,0.00,VWS V14.01,2013-03-13 20:01:00,
2013-03-13 16:06:00,49.8,11.5,30.03,WNW,292,5.4,5.8,21,0.00,,BKN060,0.00,VWS V14.01,2013-03-13 20:06:00,
2013-03-13 16:11:00,50.2,11.8,30.03,NW,315,3.6,3.6,21,0.00,,BKN060,0.00,VWS V14.01,2013-03-13 20:11:00,
2013-03-13 16:16:00,49.1,10.9,30.03,WNW,292,7.2,7.2,21,0.00,,BKN060,0.00,VWS V14.01,2013-03-13 20:16:00,
2013-03-13 16:22:00,48.2,10.1,30.03,WNW,292,5.4,6.3,21,0.00,,CLR,0.00,VWS V14.01,2013-03-13 20:22:00,
2013-03-13 16:27:00,48.4,10.3,30.03,WSW,248,9.6,9.6,21,0.00,,CLR,0.00,VWS V14.01,2013-03-13 20:27:00,
2013-03-13 16:32:00,48.6,10.4,30.03,WNW,292,5.8,8.3,21,0.00,,CLR,0.00,VWS V14.01,2013-03-13 20:32:00,
2013-03-13 16:37:00,49.3,11.0,30.03,NW,315,2.7,2.7,21,0.00,,CLR,0.00,VWS V14.01,2013-03-13 20:37:00,
2013-03-13 16:42:00,48.9,10.7,30.03,WNW,292,3.1,6.3,21,0.00,,CLR,0.00,VWS V14.01,2013-03-13 20:42:00,
2013-03-13 16:47:00,50.0,11.6,30.03,WNW,292,3.6,7.6,21,0.00,,CLR,0.00,VWS V14.01,2013-03-13 20:47:00,
2013-03-13 16:52:00,50.5,12.1,30.06,NE,45,2.7,3.1,21,0.00,,CLR,0.00,VWS V14.01,2013-03-13 20:52:00,
2013-03-13 16:57:00,50.2,11.8,30.06,NNE,22,5.8,6.3,21,0.00,,CLR,0.00,VWS V14.01,2013-03-13 20:57:00,
2013-03-13 17:02:00,50.0,11.6,30.06,NNW,338,4.0,4.0,21,0.00,,CLR,0.00,VWS V14.01,2013-03-13 21:02:00,
2013-03-13 17:07:00,49.5,11.2,30.06,NNW,338,3.6,8.3,21,0.00,,CLR,0.00,VWS V14.01,2013-03-13 21:07:00,
2013-03-13 17:12:00,49.1,10.9,30.06,NNE,22,4.9,5.4,21,0.00,,CLR,0.00,VWS V14.01,2013-03-13 21:12:00,
2013-03-13 17:17:00,48.0,11.0,30.06,North,0,3.1,5.8,22,0.00,,CLR,0.00,VWS V14.01,2013-03-13 21:17:00,
2013-03-13 17:22:00,47.8,10.9,30.06,NE,45,5.8,5.8,22,0.00,,BKN070,0.00,VWS V14.01,2013-03-13 21:22:00,
2013-03-13 17:27:00,47.8,10.9,30.06,NNE,22,3.6,3.6,22,0.00,,BKN070,0.00,VWS V14.01,2013-03-13 21:27:00,
2013-03-13 17:32:00,47.3,10.4,30.06,WNW,292,3.6,4.9,22,0.00,,BKN070,0.00,VWS V14.01,2013-03-13 21:32:00,
2013-03-13 17:38:00,47.3,10.4,30.09,NNW,338,3.1,3.1,22,0.00,,BKN070,0.00,VWS V14.01,2013-03-13 21:38:00,
2013-03-13 17:43:00,46.9,10.1,30.09,NNE,22,3.1,4.9,22,0.00,,SCT070,0.00,VWS V14.01,2013-03-13 21:43:00,
2013-03-13 17:48:00,46.2,9.5,30.09,North,0,2.7,6.3,22,0.00,,SCT070,0.00,VWS V14.01,2013-03-13 21:48:00,
2013-03-13 17:53:00,45.5,8.9,30.06,NNW,338,4.9,5.8,22,0.00,,SCT070,0.00,VWS V14.01,2013-03-13 21:53:00,
2013-03-13 17:58:00,45.0,8.4,30.06,WNW,292,4.9,4.9,22,0.00,,SCT070,0.00,VWS V14.01,2013-03-13 21:58:00,
2013-03-13 18:03:00,45.1,8.6,30.06,WNW,292,4.0,6.3,22,0.00,,SCT080,0.00,VWS V14.01,2013-03-13 22:03:00,
2013-03-13 18:08:00,43.9,8.5,30.06,NNW,338,4.0,8.7,23,0.00,,SCT080,0.00,VWS V14.01,2013-03-13 22:08:00,
2013-03-13 18:13:00,43.9,8.5,30.06,North,0,5.8,7.6,23,0.00,,SCT080,0.00,VWS V14.01,2013-03-13 22:13:00,
2013-03-13 18:18:00,43.5,8.2,30.06,NNW,338,4.9,5.4,23,0.00,,SCT080,0.00,VWS V14.01,2013-03-13 22:18:00,
2013-03-13 18:23:00,43.3,8.0,30.06,North,0,3.6,5.8,23,0.00,,CLR,0.00,VWS V14.01,2013-03-13 22:23:00,
2013-03-13 18:28:00,43.0,7.7,30.06,WNW,292,5.4,5.4,23,0.00,,CLR,0.00,VWS V14.01,2013-03-13 22:28:00,
2013-03-13 18:33:00,42.4,7.3,30.06,NNE,22,0.0,2.7,23,0.00,,CLR,0.00,VWS V14.01,2013-03-13 22:33:00,
2013-03-13 18:38:00,42.3,7.1,30.09,North,0,3.1,4.0,23,0.00,,CLR,0.00,VWS V14.01,2013-03-13 22:38:00,
2013-03-13 18:43:00,41.7,6.7,30.09,NNW,338,3.1,3.1,23,0.00,,CLR,0.00,VWS V14.01,2013-03-13 22:43:00,
2013-03-13 18:48:00,41.5,6.5,30.09,North,0,8.3,10.1,23,0.00,,CLR,0.00,VWS V14.01,2013-03-13 22:48:00,
2013-03-13 18:53:00,41.2,6.2,30.06,NNE,22,4.0,7.2,23,0.00,,CLR,0.00,VWS V14.01,2013-03-13 22:53:00,
2013-03-13 18:59:00,41.0,6.1,30.06,WNW,292,2.7,3.1,23,0.00,,CLR,0.00,VWS V14.01,2013-03-13 22:59:00,
2013-03-13 19:04:00,40.8,5.9,30.06,North,0,4.0,4.0,23,0.00,,SCT065,0.00,VWS V14.01,2013-03-13 23:04:00,
2013-03-13 19:09:00,40.6,8.4,30.09,NNW,338,3.1,3.6,26,0.00,,SCT065,0.00,VWS V14.01,2013-03-13 23:09:00,
2013-03-13 19:14:00,40.3,8.1,30.09,NNW,338,0.0,3.1,26,0.00,,SCT065,0.00,VWS V14.01,2013-03-13 23:14:00,
2013-03-13 19:19:00,39.7,7.7,30.09,NNW,338,2.7,2.7,26,0.00,,SCT065,0.00,VWS V14.01,2013-03-13 23:19:00,
2013-03-13 19:24:00,39.6,9.2,30.09,NNE,22,3.1,3.1,28,0.00,,SCT065,0.00,VWS V14.01,2013-03-13 23:24:00,
2013-03-13 19:29:00,39.2,8.9,30.09,North,0,2.7,2.7,28,0.00,,SCT065,0.00,VWS V14.01,2013-03-13 23:29:00,
2013-03-13 19:34:00,38.8,9.3,30.09,NNW,338,2.7,3.6,29,0.00,,SCT065,0.00,VWS V14.01,2013-03-13 23:34:00,
2013-03-13 19:39:00,38.7,9.2,30.09,NNW,338,2.2,2.2,29,0.00,,SCT065,0.00,VWS V14.01,2013-03-13 23:39:00,
2013-03-13 19:44:00,38.3,8.8,30.09,North,0,4.0,4.0,29,0.00,,SCT065,0.00,VWS V14.01,2013-03-13 23:44:00,
2013-03-13 19:49:00,37.9,8.5,30.09,North,0,3.1,3.1,29,0.00,,SCT065,0.00,VWS V14.01,2013-03-13 23:49:00,
2013-03-13 19:54:00,37.6,8.2,30.09,North,0,2.2,2.7,29,0.00,,SCT065,0.00,VWS V14.01,2013-03-13 23:54:00,
2013-03-13 19:59:00,37.4,8.1,30.09,WNW,292,3.6,3.6,29,0.00,,SCT065,0.00,VWS V14.01,2013-03-13 23:59:00,
2013-03-13 20:04:00,37.6,8.2,30.12,WNW,292,4.0,4.0,29,0.00,,SCT065,0.00,VWS V14.01,2013-03-14 00:04:00,
2013-03-13 20:09:00,37.4,8.1,30.12,WNW,292,2.7,3.6,29,0.00,,SCT065,0.00,VWS V14.01,2013-03-14 00:09:00,
2013-03-13 20:14:00,37.2,8.6,30.12,WNW,292,3.6,3.6,30,0.00,,SCT065,0.00,VWS V14.01,2013-03-14 00:14:00,
2013-03-13 20:20:00,36.9,8.3,30.09,WNW,292,0.0,3.1,30,0.00,,SCT065,0.00,VWS V14.01,2013-03-14 00:20:00,
2013-03-13 20:25:00,36.7,8.2,30.09,WNW,292,0.0,2.7,30,0.00,,SCT070,0.00,VWS V14.01,2013-03-14 00:25:00,
2013-03-13 20:30:00,36.5,8.0,30.09,WNW,292,2.2,4.5,30,0.00,,SCT070,0.00,VWS V14.01,2013-03-14 00:30:00,
2013-03-13 20:35:00,36.5,8.0,30.09,NW,315,0.0,3.6,30,0.00,,SCT070,0.00,VWS V14.01,2013-03-14 00:35:00,
2013-03-13 20:40:00,36.7,8.2,30.12,North,0,3.1,3.1,30,0.00,,SCT070,0.00,VWS V14.01,2013-03-14 00:40:00,
2013-03-13 20:45:00,36.7,8.2,30.12,NNW,338,3.6,3.6,30,0.00,,SCT070,0.00,VWS V14.01,2013-03-14 00:45:00,
2013-03-13 20:50:00,36.9,8.3,30.12,NNE,22,4.0,4.0,30,0.00,,SCT070,0.00,VWS V14.01,2013-03-14 00:50:00,
2013-03-13 20:55:00,36.7,8.2,30.12,WNW,292,2.2,3.6,30,0.00,,SCT070,0.00,VWS V14.01,2013-03-14 00:55:00,
2013-03-13 21:00:00,36.9,8.3,30.12,NNW,338,3.6,3.6,30,0.00,,SCT070,0.00,VWS V14.01,2013-03-14 01:00:00,
2013-03-13 21:05:00,36.9,8.3,30.12,North,0,2.7,3.6,30,0.00,,SCT065,0.00,VWS V14.01,2013-03-14 01:05:00,
2013-03-13 21:10:00,36.7,8.2,30.12,WNW,292,8.7,8.7,30,0.00,,SCT065,0.00,VWS V14.01,2013-03-14 01:10:00,
2013-03-13 21:15:00,36.7,8.2,30.12,NNE,22,5.4,5.4,30,0.00,,SCT065,0.00,VWS V14.01,2013-03-14 01:15:00,
2013-03-13 21:20:00,36.7,8.2,30.12,North,0,3.6,3.6,30,0.00,,SCT065,0.00,VWS V14.01,2013-03-14 01:20:00,
2013-03-13 21:25:00,36.7,8.2,30.12,North,0,3.1,3.1,30,0.00,,SCT065,0.00,VWS V14.01,2013-03-14 01:25:00,
2013-03-13 21:30:00,36.3,7.9,30.12,North,0,2.7,4.0,30,0.00,,SCT065,0.00,VWS V14.01,2013-03-14 01:30:00,
2013-03-13 21:35:00,36.1,7.7,30.12,WNW,292,3.1,3.6,30,0.00,,SCT065,0.00,VWS V14.01,2013-03-14 01:35:00,
2013-03-13 21:41:00,36.1,7.7,30.12,NNW,338,2.2,2.2,30,0.00,,SCT060,0.00,VWS V14.01,2013-03-14 01:41:00,
2013-03-13 21:46:00,35.8,7.4,30.12,NNW,338,2.7,3.1,30,0.00,,SCT060,0.00,VWS V14.01,2013-03-14 01:46:00,
2013-03-13 21:51:00,35.8,7.4,30.12,WNW,292,3.1,4.9,30,0.00,,SCT060,0.00,VWS V14.01,2013-03-14 01:51:00,
2013-03-13 21:56:00,35.6,7.2,30.12,NNW,338,2.7,2.7,30,0.00,,SCT060,0.00,VWS V14.01,2013-03-14 01:56:00,
2013-03-13 22:01:00,35.4,7.1,30.12,WNW,292,4.0,4.0,30,0.00,,SCT060,0.00,VWS V14.01,2013-03-14 02:01:00,
2013-03-13 22:06:00,35.4,7.1,30.15,NNW,338,4.0,4.9,30,0.00,,SCT060,0.00,VWS V14.01,2013-03-14 02:06:00,
2013-03-13 22:11:00,35.4,7.1,30.15,NNE,22,5.4,5.4,30,0.00,,SCT060,0.00,VWS V14.01,2013-03-14 02:11:00,
2013-03-13 22:16:00,35.4,7.1,30.15,NNW,338,3.6,3.6,30,0.00,,SCT060,0.00,VWS V14.01,2013-03-14 02:16:00,
2013-03-13 22:21:00,35.4,7.1,30.15,WNW,292,6.3,6.3,30,0.00,,CLR,0.00,VWS V14.01,2013-03-14 02:21:00,
2013-03-13 22:26:00,35.4,7.1,30.15,WNW,292,0.0,2.2,30,0.00,,CLR,0.00,VWS V14.01,2013-03-14 02:26:00,
2013-03-13 22:32:00,35.1,6.8,30.15,NW,315,3.1,6.3,30,0.00,,CLR,0.00,VWS V14.01,2013-03-14 02:32:00,
2013-03-13 22:37:00,34.7,7.2,30.15,WNW,292,3.1,3.1,31,0.00,,CLR,0.00,VWS V14.01,2013-03-14 02:37:00,
2013-03-13 22:42:00,34.5,7.0,30.15,NNW,338,4.0,4.0,31,0.00,,CLR,0.00,VWS V14.01,2013-03-14 02:42:00,
2013-03-13 22:47:00,34.5,7.0,30.15,NNW,338,2.7,2.7,31,0.00,,CLR,0.00,VWS V14.01,2013-03-14 02:47:00,
2013-03-13 22:52:00,34.5,7.0,30.15,NNE,22,4.9,4.9,31,0.00,,CLR,0.00,VWS V14.01,2013-03-14 02:52:00,
2013-03-13 22:57:00,34.3,6.9,30.15,NNW,338,3.1,4.0,31,0.00,,CLR,0.00,VWS V14.01,2013-03-14 02:57:00,
2013-03-13 23:02:00,34.0,6.5,30.15,NNW,338,3.1,3.1,31,0.00,,CLR,0.00,VWS V14.01,2013-03-14 03:02:00,
2013-03-13 23:07:00,34.0,6.5,30.12,NNW,338,2.7,3.1,31,0.00,,CLR,0.00,VWS V14.01,2013-03-14 03:07:00,
2013-03-13 23:12:00,33.8,6.4,30.12,North,0,3.1,3.1,31,0.00,,CLR,0.00,VWS V14.01,2013-03-14 03:12:00,
2013-03-13 23:17:00,33.8,6.4,30.12,North,0,0.0,2.7,31,0.00,,CLR,0.00,VWS V14.01,2013-03-14 03:17:00,
2013-03-13 23:22:00,33.6,6.2,30.15,NNE,22,4.0,5.4,31,0.00,,CLR,0.00,VWS V14.01,2013-03-14 03:22:00,
2013-03-13 23:28:00,33.6,6.2,30.15,NNE,22,0.0,3.1,31,0.00,,CLR,0.00,VWS V14.01,2013-03-14 03:28:00,
2013-03-13 23:33:00,33.3,5.9,30.15,NNE,22,3.1,3.1,31,0.00,,CLR,0.00,VWS V14.01,2013-03-14 03:33:00,
2013-03-13 23:38:00,33.1,6.4,30.15,NNE,22,0.0,0.0,32,0.00,,CLR,0.00,VWS V14.01,2013-03-14 03:38:00,
2013-03-13 23:43:00,32.7,6.1,30.15,NNE,22,0.0,2.2,32,0.00,,CLR,0.00,VWS V14.01,2013-03-14 03:43:00,
2013-03-13 23:48:00,32.4,5.8,30.15,NNE,22,0.0,0.0,32,0.00,,CLR,0.00,VWS V14.01,2013-03-14 03:48:00,
2013-03-13 23:53:00,31.8,5.3,30.15,NNE,22,0.0,0.0,32,0.00,,CLR,0.00,VWS V14.01,2013-03-14 03:53:00,
2013-03-13 23:58:00,31.5,5.7,30.15,NNE,22,0.0,0.0,33,0.00,,CLR,0.00,VWS V14.01,2013-03-14 03:58:00,